Time;durP1;ratioP1;P1;durP2;ratioP2;P2;SDS_P1;SDS_P2;PMS_P1;PMS_P2;Temp;Humidity;BMP_temperature;BMP_pressure;BME280_temperature;BME280_humidity;BME280_pressure;Samples;Min_cycle;Max_cycle;Signal;HPM_P1;HPM_P2
2020/12/21 00:01:41;;;;;;;7.70;4.00;;;;;;;;;;5053325;28;20199;-75
2020/12/21 00:04:08;;;;;;;7.57;3.97;;;;;;;;;;5056894;28;20223;-74
2020/12/21 00:06:35;;;;;;;7.75;4.07;;;;;;;;;;5067680;28;20188;-74
2020/12/21 00:09:02;;;;;;;5.60;3.30;;;;;;;;;;5070075;28;20200;-74
2020/12/21 00:11:33;;;;;;;10.25;3.55;;;;;;;;;;5070116;28;20249;-75
2020/12/21 00:14:00;;;;;;;6.70;3.08;;;;;;;;;;5070833;28;20709;-75
2020/12/21 00:16:27;;;;;;;6.88;3.28;;;;;;;;;;5067553;28;20679;-74
2020/12/21 00:18:54;;;;;;;12.98;3.55;;;;;;;;;;5052901;28;20211;-74
2020/12/21 00:21:21;;;;;;;7.43;3.63;;;;;;;;;;5052894;28;20232;-75
2020/12/21 00:23:48;;;;;;;8.23;3.45;;;;;;;;;;5052942;28;20212;-75
2020/12/21 00:26:15;;;;;;;8.52;3.60;;;;;;;;;;5066732;28;20543;-74
2020/12/21 00:28:41;;;;;;;6.18;2.70;;;;;;;;;;5067161;28;20220;-75
2020/12/21 00:31:09;;;;;;;7.85;3.15;;;;;;;;;;5068910;28;20245;-75
2020/12/21 00:33:36;;;;;;;8.77;3.63;;;;;;;;;;5064806;28;20298;-75
2020/12/21 00:36:03;;;;;;;8.55;2.83;;;;;;;;;;5050315;28;20668;-74
2020/12/21 00:38:30;;;;;;;8.35;3.13;;;;;;;;;;5057947;28;20194;-75
2020/12/21 00:40:56;;;;;;;10.80;3.67;;;;;;;;;;5072419;28;20666;-74
2020/12/21 00:43:23;;;;;;;10.40;3.53;;;;;;;;;;5072088;28;20212;-74
2020/12/21 00:45:50;;;;;;;6.97;4.05;;;;;;;;;;5072151;28;20234;-74
2020/12/21 00:48:17;;;;;;;10.68;3.78;;;;;;;;;;5072193;28;20308;-75
2020/12/21 00:50:44;;;;;;;6.63;3.65;;;;;;;;;;5066813;28;20194;-75
2020/12/21 00:53:11;;;;;;;5.47;3.38;;;;;;;;;;5068193;28;20267;-75
2020/12/21 00:55:39;;;;;;;9.30;3.50;;;;;;;;;;5069739;28;20643;-74
2020/12/21 00:58:05;;;;;;;7.15;3.40;;;;;;;;;;5069175;28;20563;-75
2020/12/21 01:00:32;;;;;;;7.95;3.95;;;;;;;;;;5069261;28;20664;-75
2020/12/21 01:02:59;;;;;;;8.32;3.55;;;;;;;;;;5053886;28;20227;-76
2020/12/21 01:05:27;;;;;;;8.30;2.65;;;;;;;;;;5052005;28;20194;-75
2020/12/21 01:07:54;;;;;;;13.13;3.17;;;;;;;;;;5052037;28;20717;-75
2020/12/21 01:10:21;;;;;;;4.90;2.30;;;;;;;;;;5052108;28;20315;-74
2020/12/21 01:12:47;;;;;;;9.80;2.83;;;;;;;;;;5063955;28;20593;-74
2020/12/21 01:15:14;;;;;;;7.15;2.30;;;;;;;;;;5067064;28;21525;-74
2020/12/21 01:17:41;;;;;;;7.78;2.95;;;;;;;;;;5069727;28;20190;-74
2020/12/21 01:20:08;;;;;;;5.93;3.05;;;;;;;;;;5069622;28;20227;-74
2020/12/21 01:22:35;;;;;;;4.70;2.80;;;;;;;;;;5068153;28;20196;-74
2020/12/21 01:25:02;;;;;;;4.45;1.90;;;;;;;;;;5064104;28;20550;-74
2020/12/21 01:27:29;;;;;;;5.63;3.10;;;;;;;;;;5069793;28;20747;-75
2020/12/21 01:29:56;;;;;;;5.85;2.15;;;;;;;;;;5071370;28;20212;-74
2020/12/21 01:32:23;;;;;;;7.68;2.50;;;;;;;;;;5071624;28;20300;-74
2020/12/21 01:34:49;;;;;;;4.00;2.50;;;;;;;;;;5062215;28;20349;-75
2020/12/21 01:37:16;;;;;;;4.93;2.53;;;;;;;;;;5066704;28;20631;-74
2020/12/21 01:39:48;;;;;;;3.80;1.95;;;;;;;;;;5068952;28;20739;-74
2020/12/21 01:42:15;;;;;;;6.35;2.65;;;;;;;;;;5068305;28;20186;-75
2020/12/21 01:44:42;;;;;;;8.18;2.40;;;;;;;;;;5069122;28;20300;-75
2020/12/21 01:47:09;;;;;;;6.20;2.35;;;;;;;;;;5057266;28;20586;-74
2020/12/21 01:49:36;;;;;;;7.50;2.65;;;;;;;;;;5051049;28;20681;-74
2020/12/21 01:52:03;;;;;;;5.60;2.28;;;;;;;;;;5051144;28;20191;-74
2020/12/21 01:54:31;;;;;;;6.00;2.60;;;;;;;;;;5051025;28;20345;-75
2020/12/21 01:56:59;;;;;;;4.07;2.00;;;;;;;;;;5062857;28;20290;-74
2020/12/21 01:59:25;;;;;;;5.70;2.28;;;;;;;;;;5066398;28;20238;-75
2020/12/21 02:01:52;;;;;;;9.02;2.50;;;;;;;;;;5068190;28;20204;-75
2020/12/21 02:04:19;;;;;;;3.40;1.90;;;;;;;;;;5068820;28;20216;-74
2020/12/21 02:06:46;;;;;;;5.57;2.00;;;;;;;;;;5068203;28;20196;-74
2020/12/21 02:09:13;;;;;;;10.57;2.70;;;;;;;;;;5066519;28;20200;-75
2020/12/21 02:11:40;;;;;;;6.32;2.28;;;;;;;;;;5071222;28;20281;-75
2020/12/21 02:14:08;;;;;;;4.15;2.15;;;;;;;;;;5075134;28;20271;-74
2020/12/21 02:16:35;;;;;;;4.75;2.17;;;;;;;;;;5075230;28;20299;-74
2020/12/21 02:19:02;;;;;;;7.68;2.38;;;;;;;;;;5072381;28;20544;-74
2020/12/21 02:21:30;;;;;;;8.00;2.85;;;;;;;;;;5069063;28;20200;-75
2020/12/21 02:23:57;;;;;;;5.05;2.22;;;;;;;;;;5071770;28;20258;-75
2020/12/21 02:26:23;;;;;;;13.50;2.75;;;;;;;;;;5072490;28;20198;-74
2020/12/21 02:28:52;;;;;;;11.02;3.35;;;;;;;;;;5072758;28;20226;-74
2020/12/21 02:31:18;;;;;;;5.07;2.53;;;;;;;;;;5065936;28;20225;-74
2020/12/21 02:33:46;;;;;;;5.70;2.40;;;;;;;;;;5054654;28;20222;-74
2020/12/21 02:36:12;;;;;;;7.47;2.45;;;;;;;;;;5068008;28;20666;-75
2020/12/21 02:38:40;;;;;;;8.45;2.83;;;;;;;;;;5073381;28;20209;-75
2020/12/21 02:41:07;;;;;;;6.93;2.45;;;;;;;;;;5071452;28;20239;-74
2020/12/21 02:43:34;;;;;;;5.53;1.95;;;;;;;;;;5068921;28;20210;-75
2020/12/21 02:46:01;;;;;;;4.05;1.95;;;;;;;;;;5071301;28;20215;-75
2020/12/21 02:48:28;;;;;;;5.47;2.13;;;;;;;;;;5072034;28;20221;-74
2020/12/21 02:50:55;;;;;;;8.90;2.72;;;;;;;;;;5071254;28;20191;-74
2020/12/21 02:53:21;;;;;;;3.95;1.70;;;;;;;;;;5072409;28;20215;-73
2020/12/21 02:55:49;;;;;;;6.68;2.00;;;;;;;;;;5074431;28;20621;-75
2020/12/21 02:58:16;;;;;;;6.88;2.85;;;;;;;;;;5074254;28;20547;-75
2020/12/21 03:00:43;;;;;;;4.75;2.60;;;;;;;;;;5074449;28;20200;-75
2020/12/21 03:03:10;;;;;;;5.60;3.15;;;;;;;;;;5071161;28;20217;-75
2020/12/21 03:05:36;;;;;;;11.48;3.28;;;;;;;;;;5068623;28;20231;-75
2020/12/21 03:08:04;;;;;;;8.40;3.85;;;;;;;;;;5069642;28;20217;-75
2020/12/21 03:10:31;;;;;;;7.85;4.05;;;;;;;;;;5070642;28;20190;-75
2020/12/21 03:12:59;;;;;;;6.97;4.35;;;;;;;;;;5071458;28;20279;-75
2020/12/21 03:15:26;;;;;;;7.13;4.63;;;;;;;;;;5070227;28;20291;-75
2020/12/21 03:17:52;;;;;;;11.48;5.05;;;;;;;;;;5054047;28;20195;-75
2020/12/21 03:20:19;;;;;;;9.25;5.18;;;;;;;;;;5053412;28;20195;-75
2020/12/21 03:22:47;;;;;;;12.05;4.55;;;;;;;;;;5053632;28;20580;-74
2020/12/21 03:25:14;;;;;;;13.23;5.05;;;;;;;;;;5054214;28;20199;-75
2020/12/21 03:27:41;;;;;;;8.63;5.80;;;;;;;;;;5068196;28;20218;-74
2020/12/21 03:30:09;;;;;;;9.60;6.53;;;;;;;;;;5069828;28;20200;-74
2020/12/21 03:32:36;;;;;;;11.95;5.95;;;;;;;;;;5070289;28;20192;-75
2020/12/21 03:35:03;;;;;;;7.32;5.30;;;;;;;;;;5071636;28;20225;-74
2020/12/21 03:37:32;;;;;;;9.23;5.30;;;;;;;;;;5071714;28;20194;-75
2020/12/21 03:39:59;;;;;;;14.18;5.32;;;;;;;;;;5073243;28;20190;-75
2020/12/21 03:42:26;;;;;;;10.82;4.57;;;;;;;;;;5073600;28;20200;-74
2020/12/21 03:44:52;;;;;;;12.68;4.47;;;;;;;;;;5073081;28;20240;-75
2020/12/21 03:47:20;;;;;;;9.75;3.60;;;;;;;;;;5053273;28;20229;-75
2020/12/21 03:49:47;;;;;;;9.20;4.30;;;;;;;;;;5067623;28;20190;-75
2020/12/21 03:52:14;;;;;;;6.85;2.85;;;;;;;;;;5068966;28;20197;-75
2020/12/21 03:54:41;;;;;;;5.03;3.10;;;;;;;;;;5071058;28;20214;-75
2020/12/21 03:57:07;;;;;;;5.00;2.30;;;;;;;;;;5071029;28;20200;-75
2020/12/21 03:59:34;;;;;;;4.55;2.45;;;;;;;;;;5070384;28;20193;-74
2020/12/21 04:02:01;;;;;;;6.78;2.47;;;;;;;;;;5055382;28;20199;-75
2020/12/21 04:04:29;;;;;;;14.48;2.80;;;;;;;;;;5053189;28;20484;-75
2020/12/21 04:06:56;;;;;;;12.57;3.17;;;;;;;;;;5053149;28;20197;-75
2020/12/21 04:09:22;;;;;;;14.38;3.05;;;;;;;;;;5052991;28;20255;-75
2020/12/21 04:11:49;;;;;;;6.40;2.50;;;;;;;;;;5064983;28;20377;-75
2020/12/21 04:14:16;;;;;;;5.07;2.25;;;;;;;;;;5067963;28;20233;-75
2020/12/21 04:16:43;;;;;;;6.90;3.20;;;;;;;;;;5070502;28;20270;-75
2020/12/21 04:19:10;;;;;;;6.70;3.00;;;;;;;;;;5069866;28;20543;-75
2020/12/21 04:21:37;;;;;;;9.48;2.80;;;;;;;;;;5070797;28;20685;-75
2020/12/21 04:24:04;;;;;;;5.00;2.65;;;;;;;;;;5071943;28;20214;-75
2020/12/21 04:26:31;;;;;;;6.40;3.10;;;;;;;;;;5069303;28;20183;-75
2020/12/21 04:28:58;;;;;;;7.10;3.40;;;;;;;;;;5052345;28;20276;-75
2020/12/21 04:31:25;;;;;;;5.38;2.72;;;;;;;;;;5053765;28;20213;-74
2020/12/21 04:33:51;;;;;;;6.63;3.10;;;;;;;;;;5061433;28;20259;-74
2020/12/21 04:36:18;;;;;;;9.73;4.05;;;;;;;;;;5067112;28;20186;-75
2020/12/21 04:38:46;;;;;;;6.60;3.70;;;;;;;;;;5053697;28;20282;-75
2020/12/21 04:41:13;;;;;;;10.70;3.55;;;;;;;;;;5049860;28;20282;-75
2020/12/21 04:43:40;;;;;;;5.95;3.30;;;;;;;;;;5049977;28;20206;-75
2020/12/21 04:46:07;;;;;;;6.38;3.20;;;;;;;;;;5052511;28;20228;-75
2020/12/21 04:48:38;;;;;;;8.23;3.60;;;;;;;;;;5065216;28;21552;-75
2020/12/21 04:51:05;;;;;;;13.02;4.47;;;;;;;;;;5068537;28;20190;-75
2020/12/21 04:53:32;;;;;;;6.53;3.60;;;;;;;;;;5068827;28;20210;-75
2020/12/21 04:56:01;;;;;;;5.43;3.60;;;;;;;;;;5069810;28;20219;-74
2020/12/21 04:58:28;;;;;;;8.05;3.72;;;;;;;;;;5067865;28;20194;-75
2020/12/21 05:00:55;;;;;;;8.57;4.35;;;;;;;;;;5052128;28;20190;-75
2020/12/21 05:03:21;;;;;;;5.80;3.78;;;;;;;;;;5051795;28;20271;-75
2020/12/21 05:05:48;;;;;;;7.30;4.22;;;;;;;;;;5052033;28;20226;-75
2020/12/21 05:08:16;;;;;;;9.65;4.60;;;;;;;;;;5051829;28;20224;-75
2020/12/21 05:10:44;;;;;;;4.88;3.65;;;;;;;;;;5064768;28;20201;-75
2020/12/21 05:13:12;;;;;;;7.85;4.03;;;;;;;;;;5064887;28;20214;-75
2020/12/21 05:15:39;;;;;;;9.65;4.03;;;;;;;;;;5048552;28;20194;-74
2020/12/21 05:18:07;;;;;;;7.60;3.80;;;;;;;;;;5063634;28;20196;-75
2020/12/21 05:20:34;;;;;;;8.27;3.22;;;;;;;;;;5069766;28;20208;-75
2020/12/21 05:23:01;;;;;;;10.18;3.92;;;;;;;;;;5069601;28;20573;-76
2020/12/21 05:25:28;;;;;;;7.43;3.78;;;;;;;;;;5071503;28;20259;-75
2020/12/21 05:27:54;;;;;;;4.90;3.30;;;;;;;;;;5056404;28;20267;-75
2020/12/21 05:30:22;;;;;;;6.00;3.63;;;;;;;;;;5051658;28;20527;-75
2020/12/21 05:32:59;;;;;;;8.52;4.45;;;;;;;;;;5064537;28;20194;-75
2020/12/21 05:35:28;;;;;;;6.15;3.00;;;;;;;;;;5066960;28;20197;-75
2020/12/21 05:37:55;;;;;;;9.75;3.92;;;;;;;;;;5068246;28;20206;-75
2020/12/21 05:40:25;;;;;;;10.93;3.80;;;;;;;;;;5069366;28;20604;-75
2020/12/21 05:42:52;;;;;;;11.43;3.67;;;;;;;;;;5068619;28;20217;-75
2020/12/21 05:45:18;;;;;;;12.30;4.30;;;;;;;;;;5052832;28;20218;-75
2020/12/21 05:47:48;;;;;;;9.82;4.40;;;;;;;;;;5050625;28;20223;-76
2020/12/21 05:50:19;;;;;;;8.82;4.15;;;;;;;;;;5049751;28;20198;-76
2020/12/21 05:52:51;;;;;;;8.13;4.15;;;;;;;;;;5050086;28;20551;-75
2020/12/21 05:55:18;;;;;;;7.75;4.30;;;;;;;;;;5064320;28;20189;-75
2020/12/21 05:57:48;;;;;;;7.25;3.78;;;;;;;;;;5067072;28;20282;-75
2020/12/21 06:00:15;;;;;;;7.05;4.38;;;;;;;;;;5069006;28;20215;-74
2020/12/21 06:02:42;;;;;;;10.90;3.88;;;;;;;;;;5067365;28;20288;-75
2020/12/21 06:05:10;;;;;;;9.15;4.10;;;;;;;;;;5069222;28;20190;-74
2020/12/21 06:07:38;;;;;;;8.00;3.38;;;;;;;;;;5070475;28;20285;-74
2020/12/21 06:10:05;;;;;;;7.50;4.13;;;;;;;;;;5058353;28;20201;-74
2020/12/21 06:12:36;;;;;;;8.23;3.38;;;;;;;;;;5050757;28;20205;-75
2020/12/21 06:15:04;;;;;;;12.27;3.88;;;;;;;;;;5050952;28;20209;-74
2020/12/21 06:17:31;;;;;;;4.35;3.28;;;;;;;;;;5063766;28;20196;-74
2020/12/21 06:20:06;;;;;;;7.22;3.75;;;;;;;;;;5066471;28;20217;-75
2020/12/21 06:22:34;;;;;;;7.63;3.97;;;;;;;;;;5067728;28;20186;-75
2020/12/21 06:25:01;;;;;;;10.63;4.20;;;;;;;;;;5068642;28;20258;-75
2020/12/21 06:27:37;;;;;;;7.38;3.60;;;;;;;;;;5068796;28;20221;-76
2020/12/21 06:30:05;;;;;;;7.00;3.67;;;;;;;;;;5052432;28;20204;-76
2020/12/21 06:32:33;;;;;;;5.57;3.05;;;;;;;;;;5049648;28;20200;-75
2020/12/21 06:34:59;;;;;;;8.57;3.50;;;;;;;;;;5049712;28;20248;-75
2020/12/21 06:37:27;;;;;;;5.90;3.28;;;;;;;;;;5049690;28;20201;-75
2020/12/21 06:40:02;;;;;;;5.45;3.20;;;;;;;;;;5063632;28;20232;-75
2020/12/21 06:42:29;;;;;;;6.38;3.35;;;;;;;;;;5065087;28;20189;-75
2020/12/21 06:44:57;;;;;;;9.55;3.70;;;;;;;;;;5054305;28;20311;-76
2020/12/21 06:47:25;;;;;;;11.20;4.00;;;;;;;;;;5048425;28;20196;-75
2020/12/21 06:49:52;;;;;;;8.65;3.88;;;;;;;;;;5047787;28;20236;-75
2020/12/21 06:52:19;;;;;;;8.63;3.40;;;;;;;;;;5069868;28;20684;-75
2020/12/21 06:54:46;;;;;;;12.20;4.20;;;;;;;;;;5070288;28;20213;-76
2020/12/21 06:57:14;;;;;;;10.50;3.60;;;;;;;;;;5070831;28;20200;-75
2020/12/21 06:59:41;;;;;;;6.20;3.42;;;;;;;;;;5073907;28;20247;-75
2020/12/21 07:02:08;;;;;;;11.27;3.75;;;;;;;;;;5069367;28;20239;-76
2020/12/21 07:04:35;;;;;;;8.90;4.30;;;;;;;;;;5068725;28;20264;-75
2020/12/21 07:07:03;;;;;;;9.68;4.00;;;;;;;;;;5071973;28;20567;-76
2020/12/21 07:09:30;;;;;;;9.57;3.55;;;;;;;;;;5071892;28;20228;-76
2020/12/21 07:11:58;;;;;;;12.73;4.05;;;;;;;;;;5071162;28;20310;-74
2020/12/21 07:14:26;;;;;;;10.63;4.05;;;;;;;;;;5072885;28;20274;-74
2020/12/21 07:17:02;;;;;;;6.60;3.83;;;;;;;;;;5073978;28;20287;-75
2020/12/21 07:19:29;;;;;;;7.72;3.67;;;;;;;;;;5059195;28;20197;-75
2020/12/21 07:21:56;;;;;;;9.07;4.10;;;;;;;;;;5053843;28;20193;-75
2020/12/21 07:24:23;;;;;;;6.43;3.53;;;;;;;;;;5064848;28;20309;-74
2020/12/21 07:26:50;;;;;;;6.20;3.90;;;;;;;;;;5067579;28;20194;-75
2020/12/21 07:29:17;;;;;;;10.63;4.10;;;;;;;;;;5071656;28;20236;-75
2020/12/21 07:31:45;;;;;;;6.10;3.15;;;;;;;;;;5071437;28;20244;-75
2020/12/21 07:34:11;;;;;;;10.30;3.65;;;;;;;;;;5070742;28;20220;-76
2020/12/21 07:36:39;;;;;;;9.45;4.30;;;;;;;;;;5071768;28;20231;-77
2020/12/21 07:39:06;;;;;;;9.48;3.70;;;;;;;;;;5060522;28;20229;-79
2020/12/21 07:41:34;;;;;;;9.32;3.53;;;;;;;;;;5053510;28;20199;-74
2020/12/21 07:44:03;;;;;;;9.85;3.53;;;;;;;;;;5053516;28;20300;-74
2020/12/21 07:46:36;;;;;;;7.20;4.15;;;;;;;;;;5062826;28;20305;-75
2020/12/21 07:49:03;;;;;;;9.15;4.22;;;;;;;;;;5068442;28;20221;-75
2020/12/21 07:51:31;;;;;;;8.07;4.35;;;;;;;;;;5070709;28;20425;-75
2020/12/21 07:54:01;;;;;;;5.85;3.72;;;;;;;;;;5070816;28;20733;-74
2020/12/21 07:56:27;;;;;;;6.18;3.53;;;;;;;;;;5071668;28;20198;-75
2020/12/21 07:58:54;;;;;;;8.70;4.00;;;;;;;;;;5072189;28;20205;-75
2020/12/21 08:01:22;;;;;;;8.57;3.58;;;;;;;;;;5073004;28;20257;-75
2020/12/21 08:03:51;;;;;;;8.93;3.90;;;;;;;;;;5073154;28;21252;-76
2020/12/21 08:06:22;;;;;;;12.23;3.63;;;;;;;;;;5073497;28;20218;-75
2020/12/21 08:08:50;;;;;;;6.22;3.42;;;;;;;;;;5065735;28;20486;-75
2020/12/21 08:11:17;;;;;;;6.47;3.73;;;;;;;;;;5066174;28;21530;-76
2020/12/21 08:13:46;;;;;;;10.00;3.63;;;;;;;;;;5069494;28;20461;-75
2020/12/21 08:16:13;;;;;;;14.37;3.87;;;;;;;;;;5070621;28;20223;-74
2020/12/21 08:18:40;;;;;;;6.53;3.07;;;;;;;;;;5070996;28;20471;-76
2020/12/21 08:21:07;;;;;;;8.27;3.00;;;;;;;;;;5071992;28;20446;-74
2020/12/21 08:23:34;;;;;;;6.30;3.23;;;;;;;;;;5072696;28;20475;-75
2020/12/21 08:26:01;;;;;;;13.83;3.47;;;;;;;;;;5058066;28;20448;-75
2020/12/21 08:28:29;;;;;;;5.63;2.80;;;;;;;;;;5052501;28;20488;-75
2020/12/21 08:31:10;;;;;;;8.80;3.40;;;;;;;;;;5062004;28;20839;-75
2020/12/21 08:33:38;;;;;;;7.00;3.20;;;;;;;;;;5063302;28;20927;-76
2020/12/21 08:36:16;;;;;;;4.80;2.83;;;;;;;;;;5050373;28;20440;-76
2020/12/21 08:38:44;;;;;;;11.53;3.70;;;;;;;;;;5048767;28;20439;-75
2020/12/21 08:41:11;;;;;;;5.90;3.23;;;;;;;;;;5050337;28;20538;-75
2020/12/21 08:43:38;;;;;;;6.07;2.30;;;;;;;;;;5051638;28;21068;-75
2020/12/21 08:46:07;;;;;;;5.70;3.03;;;;;;;;;;5052874;28;20517;-72
2020/12/21 08:48:36;;;;;;;5.60;3.20;;;;;;;;;;5067013;28;20489;-74
2020/12/21 08:51:03;;;;;;;6.93;3.43;;;;;;;;;;5064794;28;20526;-75
2020/12/21 08:53:30;;;;;;;5.47;3.30;;;;;;;;;;5067341;28;20877;-74
2020/12/21 08:55:57;;;;;;;8.97;3.60;;;;;;;;;;5064272;28;20444;-74
2020/12/21 08:58:24;;;;;;;6.67;3.60;;;;;;;;;;5059111;28;20440;-75
2020/12/21 09:00:51;;;;;;;6.97;3.00;;;;;;;;;;5069734;28;20443;-75
2020/12/21 09:03:18;;;;;;;6.43;2.80;;;;;;;;;;5052504;28;20498;-75
2020/12/21 09:05:45;;;;;;;6.67;2.70;;;;;;;;;;5051042;28;20488;-75
2020/12/21 09:08:11;;;;;;;9.00;3.50;;;;;;;;;;5051869;28;20528;-74
2020/12/21 09:10:41;;;;;;;7.50;3.00;;;;;;;;;;5051933;28;20789;-75
2020/12/21 09:13:08;;;;;;;5.03;2.40;;;;;;;;;;5051823;28;20932;-75
2020/12/21 09:15:35;;;;;;;6.30;3.90;;;;;;;;;;5061747;28;20433;-74
2020/12/21 09:18:02;;;;;;;8.00;3.43;;;;;;;;;;5066303;28;20436;-74
2020/12/21 09:20:29;;;;;;;7.30;2.70;;;;;;;;;;5068925;28;20440;-73
2020/12/21 09:22:56;;;;;;;3.33;2.63;;;;;;;;;;5067562;28;20862;-73
2020/12/21 09:25:23;;;;;;;5.20;2.80;;;;;;;;;;5069790;28;20440;-74
2020/12/21 09:27:50;;;;;;;7.43;2.80;;;;;;;;;;5059234;28;20489;-74
2020/12/21 09:30:17;;;;;;;6.53;2.40;;;;;;;;;;5051622;28;20457;-75
2020/12/21 09:32:44;;;;;;;13.23;3.47;;;;;;;;;;5051385;28;20540;-78
2020/12/21 09:35:11;;;;;;;7.97;3.17;;;;;;;;;;5051808;28;20531;-74
2020/12/21 09:37:38;;;;;;;8.00;2.80;;;;;;;;;;5058847;28;20433;-75
2020/12/21 09:40:04;;;;;;;13.33;4.33;;;;;;;;;;5065177;28;20437;-76
2020/12/21 09:42:31;;;;;;;7.83;2.97;;;;;;;;;;5068622;28;20451;-74
2020/12/21 09:44:58;;;;;;;6.87;2.60;;;;;;;;;;5068899;28;20467;-74
2020/12/21 09:47:25;;;;;;;6.67;3.00;;;;;;;;;;5050245;28;20494;-74
2020/12/21 09:49:52;;;;;;;4.60;2.87;;;;;;;;;;5052607;28;20490;-75
2020/12/21 09:52:19;;;;;;;6.30;3.00;;;;;;;;;;5064458;28;20489;-74
2020/12/21 09:54:46;;;;;;;6.77;3.07;;;;;;;;;;5063598;28;20502;-74
2020/12/21 09:57:13;;;;;;;4.80;3.07;;;;;;;;;;5058880;28;21208;-74
2020/12/21 09:59:40;;;;;;;5.73;2.63;;;;;;;;;;5068641;28;20513;-74
2020/12/21 10:02:07;;;;;;;5.67;3.20;;;;;;;;;;5068394;28;20951;-75
2020/12/21 10:04:35;;;;;;;7.40;3.20;;;;;;;;;;5067354;28;20444;-75
2020/12/21 10:07:02;;;;;;;6.00;3.20;;;;;;;;;;5065624;28;20427;-75
2020/12/21 10:09:29;;;;;;;6.27;3.00;;;;;;;;;;5067873;28;20487;-74
2020/12/21 10:11:55;;;;;;;5.13;2.97;;;;;;;;;;5066769;28;20441;-74
2020/12/21 10:14:22;;;;;;;8.43;3.10;;;;;;;;;;5057462;28;20470;-74
2020/12/21 10:16:53;;;;;;;7.20;2.50;;;;;;;;;;5069636;28;20642;-74
2020/12/21 10:19:20;;;;;;;8.10;2.80;;;;;;;;;;5070902;28;20490;-74
2020/12/21 10:21:48;;;;;;;7.40;2.90;;;;;;;;;;5071011;28;20451;-73
2020/12/21 10:24:14;;;;;;;3.23;2.37;;;;;;;;;;5070861;28;20928;-74
2020/12/21 10:26:41;;;;;;;8.23;2.67;;;;;;;;;;5065583;28;20799;-74
2020/12/21 10:29:08;;;;;;;6.70;2.80;;;;;;;;;;5065988;28;20476;-74
2020/12/21 10:31:35;;;;;;;7.67;3.10;;;;;;;;;;5069060;28;20781;-74
2020/12/21 10:34:02;;;;;;;7.93;2.90;;;;;;;;;;5071207;28;20972;-73
2020/12/21 10:36:29;;;;;;;7.23;3.03;;;;;;;;;;5071854;28;20501;-73
2020/12/21 10:38:57;;;;;;;10.77;3.37;;;;;;;;;;5072659;28;20444;-74
2020/12/21 10:41:24;;;;;;;4.57;2.93;;;;;;;;;;5068317;28;20428;-75
2020/12/21 10:43:51;;;;;;;8.40;3.00;;;;;;;;;;5070520;28;20466;-73
2020/12/21 10:46:20;;;;;;;3.73;3.27;;;;;;;;;;5060584;28;20522;-74
2020/12/21 10:48:47;;;;;;;5.73;3.10;;;;;;;;;;5052640;28;20714;-76
2020/12/21 10:51:14;;;;;;;8.70;3.40;;;;;;;;;;5053034;28;20945;-75
2020/12/21 10:53:40;;;;;;;11.37;3.33;;;;;;;;;;5055725;28;20496;-76
2020/12/21 10:56:12;;;;;;;6.63;3.37;;;;;;;;;;5054588;28;20437;-75
2020/12/21 10:58:41;;;;;;;6.30;2.93;;;;;;;;;;5054273;28;21049;-75
2020/12/21 11:01:08;;;;;;;6.37;2.70;;;;;;;;;;5055051;28;20447;-75
2020/12/21 11:03:35;;;;;;;7.47;2.90;;;;;;;;;;5068543;28;20959;-75
2020/12/21 11:06:02;;;;;;;19.07;3.60;;;;;;;;;;5070364;28;20443;-76
2020/12/21 11:08:28;;;;;;;5.60;3.23;;;;;;;;;;5063131;28;20883;-74
2020/12/21 11:10:55;;;;;;;4.73;3.10;;;;;;;;;;5052110;28;20436;-75
2020/12/21 11:13:23;;;;;;;5.60;3.27;;;;;;;;;;5051911;28;20472;-74
2020/12/21 11:15:50;;;;;;;7.70;4.17;;;;;;;;;;5053884;28;20867;-74
2020/12/21 11:18:16;;;;;;;6.40;3.70;;;;;;;;;;5054126;28;20448;-74
2020/12/21 11:20:43;;;;;;;9.53;4.43;;;;;;;;;;5055233;28;20468;-74
2020/12/21 11:23:10;;;;;;;9.90;4.70;;;;;;;;;;5074081;28;20533;-75
2020/12/21 11:25:37;;;;;;;6.60;4.33;;;;;;;;;;5067702;28;20478;-75
2020/12/21 11:28:05;;;;;;;10.30;5.70;;;;;;;;;;5060635;28;20516;-75
2020/12/21 11:30:32;;;;;;;8.77;4.30;;;;;;;;;;5050489;28;20447;-75
2020/12/21 11:33:00;;;;;;;8.40;4.43;;;;;;;;;;5050652;28;20607;-75
2020/12/21 11:35:27;;;;;;;9.47;4.53;;;;;;;;;;5050125;28;20510;-76
2020/12/21 11:37:54;;;;;;;8.13;4.63;;;;;;;;;;5050274;28;20444;-75
2020/12/21 11:40:21;;;;;;;9.00;4.60;;;;;;;;;;5053003;28;20437;-75
2020/12/21 11:42:48;;;;;;;11.30;4.30;;;;;;;;;;5056374;28;20532;-74
2020/12/21 11:45:15;;;;;;;9.27;4.70;;;;;;;;;;5067418;28;20505;-75
2020/12/21 11:47:42;;;;;;;7.03;4.10;;;;;;;;;;5068513;28;20722;-75
2020/12/21 11:50:09;;;;;;;7.47;4.53;;;;;;;;;;5067592;28;20869;-75
2020/12/21 11:52:38;;;;;;;7.33;4.60;;;;;;;;;;5055970;28;20437;-76
2020/12/21 11:55:05;;;;;;;7.33;3.90;;;;;;;;;;5069575;28;20440;-75
2020/12/21 11:57:32;;;;;;;15.10;5.60;;;;;;;;;;5066879;28;20985;-75
2020/12/21 11:59:58;;;;;;;7.70;4.17;;;;;;;;;;5059909;28;20462;-75
2020/12/21 12:02:25;;;;;;;5.70;3.90;;;;;;;;;;5071221;28;20440;-74
2020/12/21 12:04:53;;;;;;;6.37;4.00;;;;;;;;;;5058805;28;20544;-75
2020/12/21 12:07:20;;;;;;;6.03;4.47;;;;;;;;;;5051736;28;20467;-76
2020/12/21 12:09:47;;;;;;;6.00;4.50;;;;;;;;;;5062928;28;20468;-76
2020/12/21 12:12:13;;;;;;;7.77;3.83;;;;;;;;;;5067494;28;20432;-75
2020/12/21 12:14:40;;;;;;;7.00;4.30;;;;;;;;;;5070019;28;20456;-75
2020/12/21 12:17:07;;;;;;;10.03;4.10;;;;;;;;;;5051803;28;20437;-75
2020/12/21 12:19:34;;;;;;;6.93;3.93;;;;;;;;;;5057150;28;20433;-76
2020/12/21 12:22:01;;;;;;;8.30;4.10;;;;;;;;;;5058047;28;20445;-76
2020/12/21 12:24:28;;;;;;;5.90;4.00;;;;;;;;;;5056271;28;20477;-76
2020/12/21 12:26:55;;;;;;;6.57;4.40;;;;;;;;;;5057338;28;20714;-74
2020/12/21 12:29:22;;;;;;;13.20;4.97;;;;;;;;;;5063195;28;20515;-75
2020/12/21 12:31:49;;;;;;;8.23;4.87;;;;;;;;;;5046532;28;20463;-75
2020/12/21 12:34:16;;;;;;;13.43;5.60;;;;;;;;;;5055557;28;20464;-75
2020/12/21 12:36:43;;;;;;;8.50;4.00;;;;;;;;;;5064866;28;21048;-77
2020/12/21 12:39:11;;;;;;;9.07;5.00;;;;;;;;;;5056363;28;20880;-75
2020/12/21 12:41:39;;;;;;;8.10;5.57;;;;;;;;;;5057785;28;20456;-74
2020/12/21 12:44:06;;;;;;;17.53;5.80;;;;;;;;;;5046605;28;20745;-76
2020/12/21 12:46:33;;;;;;;7.63;5.30;;;;;;;;;;5059818;28;20563;-74
2020/12/21 12:49:00;;;;;;;10.27;5.40;;;;;;;;;;5062634;28;20476;-78
2020/12/21 12:51:26;;;;;;;7.30;5.30;;;;;;;;;;5062247;28;20799;-79
2020/12/21 12:53:53;;;;;;;10.87;5.13;;;;;;;;;;5064941;28;20468;-74
2020/12/21 12:56:22;;;;;;;8.00;5.40;;;;;;;;;;5065650;28;20440;-75
2020/12/21 12:58:49;;;;;;;9.00;4.90;;;;;;;;;;5057939;28;20449;-76
2020/12/21 13:01:16;;;;;;;10.17;5.03;;;;;;;;;;5057296;28;20443;-73
2020/12/21 13:03:43;;;;;;;8.43;5.20;;;;;;;;;;5066779;28;20472;-75
2020/12/21 13:06:10;;;;;;;8.00;4.93;;;;;;;;;;5049259;28;20433;-74
2020/12/21 13:08:37;;;;;;;8.47;5.30;;;;;;;;;;5046856;28;20502;-75
2020/12/21 13:11:04;;;;;;;7.40;4.63;;;;;;;;;;5053811;28;20436;-76
2020/12/21 13:13:31;;;;;;;7.23;4.23;;;;;;;;;;5061166;28;20454;-75
2020/12/21 13:15:59;;;;;;;11.13;5.47;;;;;;;;;;5065938;28;20444;-75
2020/12/21 13:18:26;;;;;;;6.03;4.37;;;;;;;;;;5066803;28;21064;-74
2020/12/21 13:20:52;;;;;;;7.60;5.10;;;;;;;;;;5068529;28;20850;-74
2020/12/21 13:23:19;;;;;;;11.27;5.60;;;;;;;;;;5063284;28;20567;-74
2020/12/21 13:25:47;;;;;;;7.90;5.37;;;;;;;;;;5061124;28;20517;-75
2020/12/21 13:28:13;;;;;;;8.37;5.00;;;;;;;;;;5050645;28;20473;-75
2020/12/21 13:30:41;;;;;;;9.13;5.07;;;;;;;;;;5066093;28;20497;-75
2020/12/21 13:33:08;;;;;;;6.87;5.03;;;;;;;;;;5068253;28;21039;-75
2020/12/21 13:35:35;;;;;;;8.17;4.73;;;;;;;;;;5064743;28;20459;-76
2020/12/21 13:38:02;;;;;;;12.13;5.63;;;;;;;;;;5068241;28;21063;-74
2020/12/21 13:40:29;;;;;;;7.60;5.27;;;;;;;;;;5066252;28;20447;-74
2020/12/21 13:42:56;;;;;;;9.67;6.10;;;;;;;;;;5060409;28;20554;-76
2020/12/21 13:45:22;;;;;;;11.90;5.57;;;;;;;;;;5056424;28;20475;-76
2020/12/21 13:47:50;;;;;;;13.27;5.60;;;;;;;;;;5062712;28;20443;-76
2020/12/21 13:50:17;;;;;;;7.03;5.13;;;;;;;;;;5069827;28;20557;-76
2020/12/21 13:52:43;;;;;;;10.00;5.10;;;;;;;;;;5050336;28;20529;-76
2020/12/21 13:55:10;;;;;;;10.60;5.20;;;;;;;;;;5054816;28;20613;-77
2020/12/21 13:57:37;;;;;;;9.97;5.33;;;;;;;;;;5064407;28;20439;-78
2020/12/21 14:00:04;;;;;;;9.40;5.50;;;;;;;;;;5067130;28;20953;-77
2020/12/21 14:02:31;;;;;;;10.40;5.50;;;;;;;;;;5066615;28;20524;-77
2020/12/21 14:04:59;;;;;;;9.00;5.27;;;;;;;;;;5056931;28;20524;-77
2020/12/21 14:07:29;;;;;;;7.20;5.33;;;;;;;;;;5048093;28;20457;-78
2020/12/21 14:09:56;;;;;;;8.53;5.67;;;;;;;;;;5060617;28;20507;-77
2020/12/21 14:12:23;;;;;;;6.47;5.30;;;;;;;;;;5069537;28;20450;-76
2020/12/21 14:14:49;;;;;;;10.53;5.27;;;;;;;;;;5069971;28;20550;-76
2020/12/21 14:17:16;;;;;;;9.87;4.80;;;;;;;;;;5058318;28;20444;-76
2020/12/21 14:19:43;;;;;;;7.90;4.50;;;;;;;;;;5064401;28;20446;-76
2020/12/21 14:22:11;;;;;;;5.80;4.60;;;;;;;;;;5066523;28;20444;-77
2020/12/21 14:24:37;;;;;;;5.43;4.10;;;;;;;;;;5067825;28;20466;-77
2020/12/21 14:27:04;;;;;;;6.50;4.50;;;;;;;;;;5067404;28;20436;-78
2020/12/21 14:29:33;;;;;;;8.27;4.83;;;;;;;;;;5053241;28;20535;-77
2020/12/21 14:32:00;;;;;;;7.47;4.90;;;;;;;;;;5049438;28;20444;-76
2020/12/21 14:34:27;;;;;;;5.43;4.87;;;;;;;;;;5049917;28;20868;-77
2020/12/21 14:36:53;;;;;;;7.30;4.67;;;;;;;;;;5049328;28;20967;-76
2020/12/21 14:39:21;;;;;;;6.70;4.40;;;;;;;;;;5050842;28;20440;-78
2020/12/21 14:41:48;;;;;;;7.33;4.17;;;;;;;;;;5064259;28;20444;-77